Airfield :
LOGIN :

Register | Disclaimer

   EN    FR    IT 

 










Legend :    VFR   Marginal VFR   IFR   Intensive IFR   Very Intensive IFR
Visi :
Ceiling :
>= 8 km
>= 3000ft
5 to 8 km
1000 to 3000 ft
1500m to 5 km
500 to 1000 ft
800 to 1500m
200 to 500 ft
< 800m
< 200 ft
Symbols :   Thunderstorms  Fog  Heavy snow  Heavy precipitations  Wind > 20 kt
SIGMETs :     Misc.  Thunderstorms  Icing  Turbulence  Mountain Waves  Volcanic Ashes






- Airport Elevation : 274 ft
- IATA code : PUY


LDPL - Pula

CURRENT METAR :
  • 151300Z 13013G25KT 090V170 9999 BKN025 BKN040 17/13 Q1004 NOSIG

EXPIRED METARs :
  • 151230Z 14013G24KT 100V180 9999 BKN025 BKN040 18/12 Q1005 NOSIG
  • 151200Z 14013G26KT 080V190 9999 BKN025 BKN040 17/12 Q1005 NOSIG
  • 151130Z 14014G24KT 090V200 9999 BKN025 BKN040 17/12 Q1005 NOSIG
  • 151100Z 14012G23KT 090V180 9999 -RA BKN025 BKN040 17/13 Q1005 NOSIG
  • 151030Z 15013G24KT 090V190 9999 BKN025 BKN040 17/13 Q1006 NOSIG

TAF TAF LDPL
Valid from the 15 at 12:00 until the 16 at 12:00 UTC


151125Z 1512/1612 14015KT 9999 SCT025 BKN040 TX18/1518Z TN12/1605Z
TEMPO 1512/1518 15015G25KT
PROB40
TEMPO 1512/1518 SHRA SCT020TCU BKN030
PROB30
TEMPO 1515/1519 15025G35KT
TEMPO 1518/1522 26015G25KT 3000 TSRA SCT015CB BKN030
BECMG 1519/1521 26010KT
BECMG 1523/1601 15006KT
PROB30
TEMPO 1603/1606 BKN010



MET'MAP, your aeronautical weather chart ! - Copyright ORBIFLY December 2007 - Disclaimer

ORBIFLY MET'MAP TEAM :

Programming & Development : Alexandra Zaïnal
Concept & Development : Baudouin d'Aumeries
Co-Development & Prog : Marc-Olivier Méhu
Technical & hardware support : Manuel Goepfert

Contact : metmap@orbifly.com




SOURCES & CREDITS :

   NOAA